sensor_id;sensor_type;location;lat;lon;timestamp;P1;durP1;ratioP1;P2;durP2;ratioP2
76167;SDS011;64927;48.214;16.378;2023-04-15T00:00:32;0.17;;;0.17;;
76167;SDS011;64927;48.214;16.378;2023-04-15T00:02:58;0.65;;;0.38;;
76167;SDS011;64927;48.214;16.378;2023-04-15T00:05:26;1.25;;;0.28;;
76167;SDS011;64927;48.214;16.378;2023-04-15T00:07:56;0.65;;;0.30;;
76167;SDS011;64927;48.214;16.378;2023-04-15T00:10:23;1.13;;;0.43;;
76167;SDS011;64927;48.214;16.378;2023-04-15T00:12:49;0.32;;;0.30;;
76167;SDS011;64927;48.214;16.378;2023-04-15T00:15:16;0.60;;;0.60;;
76167;SDS011;64927;48.214;16.378;2023-04-15T00:17:41;0.47;;;0.30;;
76167;SDS011;64927;48.214;16.378;2023-04-15T00:20:07;0.47;;;0.30;;
76167;SDS011;64927;48.214;16.378;2023-04-15T00:22:34;0.32;;;0.30;;
76167;SDS011;64927;48.214;16.378;2023-04-15T00:25:00;0.50;;;0.35;;
76167;SDS011;64927;48.214;16.378;2023-04-15T00:27:26;0.10;;;0.10;;
76167;SDS011;64927;48.214;16.378;2023-04-15T00:29:51;0.50;;;0.30;;
76167;SDS011;64927;48.214;16.378;2023-04-15T00:32:17;0.45;;;0.20;;
76167;SDS011;64927;48.214;16.378;2023-04-15T00:34:46;0.45;;;0.40;;
76167;SDS011;64927;48.214;16.378;2023-04-15T00:37:14;0.50;;;0.40;;
76167;SDS011;64927;48.214;16.378;2023-04-15T00:39:40;1.25;;;0.30;;
76167;SDS011;64927;48.214;16.378;2023-04-15T00:42:06;0.30;;;0.30;;
76167;SDS011;64927;48.214;16.378;2023-04-15T00:44:32;1.13;;;0.40;;
76167;SDS011;64927;48.214;16.378;2023-04-15T00:47:00;0.35;;;0.30;;
76167;SDS011;64927;48.214;16.378;2023-04-15T00:49:26;0.47;;;0.28;;
76167;SDS011;64927;48.214;16.378;2023-04-15T00:51:53;0.35;;;0.30;;
76167;SDS011;64927;48.214;16.378;2023-04-15T00:54:19;0.20;;;0.20;;
76167;SDS011;64927;48.214;16.378;2023-04-15T00:56:45;0.32;;;0.30;;
76167;SDS011;64927;48.214;16.378;2023-04-15T00:59:11;0.50;;;0.50;;
76167;SDS011;64927;48.214;16.378;2023-04-15T01:01:38;1.33;;;0.30;;
76167;SDS011;64927;48.214;16.378;2023-04-15T01:04:04;0.63;;;0.38;;
76167;SDS011;64927;48.214;16.378;2023-04-15T01:06:30;0.88;;;0.30;;
76167;SDS011;64927;48.214;16.378;2023-04-15T01:08:57;0.20;;;0.20;;
76167;SDS011;64927;48.214;16.378;2023-04-15T01:11:25;0.60;;;0.38;;
76167;SDS011;64927;48.214;16.378;2023-04-15T01:13:52;0.40;;;0.40;;
76167;SDS011;64927;48.214;16.378;2023-04-15T01:16:22;0.57;;;0.57;;
76167;SDS011;64927;48.214;16.378;2023-04-15T01:18:48;0.55;;;0.55;;
76167;SDS011;64927;48.214;16.378;2023-04-15T01:21:13;0.40;;;0.40;;
76167;SDS011;64927;48.214;16.378;2023-04-15T01:23:39;0.98;;;0.60;;
76167;SDS011;64927;48.214;16.378;2023-04-15T01:26:05;0.70;;;0.45;;
76167;SDS011;64927;48.214;16.378;2023-04-15T01:28:35;1.13;;;0.65;;
76167;SDS011;64927;48.214;16.378;2023-04-15T01:31:08;0.60;;;0.47;;
76167;SDS011;64927;48.214;16.378;2023-04-15T01:33:41;0.98;;;0.40;;
76167;SDS011;64927;48.214;16.378;2023-04-15T01:36:09;0.40;;;0.40;;
76167;SDS011;64927;48.214;16.378;2023-04-15T01:38:37;0.73;;;0.40;;
76167;SDS011;64927;48.214;16.378;2023-04-15T01:41:05;1.25;;;0.40;;
76167;SDS011;64927;48.214;16.378;2023-04-15T01:43:37;0.40;;;0.35;;
76167;SDS011;64927;48.214;16.378;2023-04-15T01:46:05;0.43;;;0.38;;
76167;SDS011;64927;48.214;16.378;2023-04-15T01:48:33;0.30;;;0.20;;
76167;SDS011;64927;48.214;16.378;2023-04-15T01:50:59;0.30;;;0.20;;
76167;SDS011;64927;48.214;16.378;2023-04-15T01:53:25;0.30;;;0.20;;
76167;SDS011;64927;48.214;16.378;2023-04-15T01:55:53;0.35;;;0.20;;
76167;SDS011;64927;48.214;16.378;2023-04-15T01:58:19;0.43;;;0.40;;
76167;SDS011;64927;48.214;16.378;2023-04-15T02:00:44;0.20;;;0.20;;
76167;SDS011;64927;48.214;16.378;2023-04-15T02:03:10;1.98;;;0.20;;
76167;SDS011;64927;48.214;16.378;2023-04-15T02:05:36;0.82;;;0.40;;
76167;SDS011;64927;48.214;16.378;2023-04-15T02:08:01;0.32;;;0.10;;
76167;SDS011;64927;48.214;16.378;2023-04-15T02:10:30;0.95;;;0.38;;
76167;SDS011;64927;48.214;16.378;2023-04-15T02:12:55;0.73;;;0.20;;
76167;SDS011;64927;48.214;16.378;2023-04-15T02:15:21;0.10;;;0.10;;
76167;SDS011;64927;48.214;16.378;2023-04-15T02:17:47;0.20;;;0.20;;
76167;SDS011;64927;48.214;16.378;2023-04-15T02:20:15;0.65;;;0.32;;
76167;SDS011;64927;48.214;16.378;2023-04-15T02:22:42;0.88;;;0.40;;
76167;SDS011;64927;48.214;16.378;2023-04-15T02:25:11;0.82;;;0.50;;
76167;SDS011;64927;48.214;16.378;2023-04-15T02:27:36;0.75;;;0.70;;
76167;SDS011;64927;48.214;16.378;2023-04-15T02:30:02;0.90;;;0.77;;
76167;SDS011;64927;48.214;16.378;2023-04-15T02:32:28;0.57;;;0.50;;
76167;SDS011;64927;48.214;16.378;2023-04-15T02:34:54;0.80;;;0.70;;
76167;SDS011;64927;48.214;16.378;2023-04-15T02:37:19;0.47;;;0.47;;
76167;SDS011;64927;48.214;16.378;2023-04-15T02:39:47;0.60;;;0.60;;
76167;SDS011;64927;48.214;16.378;2023-04-15T02:42:13;0.52;;;0.40;;
76167;SDS011;64927;48.214;16.378;2023-04-15T02:44:39;0.30;;;0.30;;
76167;SDS011;64927;48.214;16.378;2023-04-15T02:47:07;0.52;;;0.50;;
76167;SDS011;64927;48.214;16.378;2023-04-15T02:49:33;0.70;;;0.65;;
76167;SDS011;64927;48.214;16.378;2023-04-15T02:51:58;1.70;;;0.60;;
76167;SDS011;64927;48.214;16.378;2023-04-15T02:54:24;0.60;;;0.47;;
76167;SDS011;64927;48.214;16.378;2023-04-15T02:56:52;1.67;;;0.60;;
76167;SDS011;64927;48.214;16.378;2023-04-15T02:59:20;0.63;;;0.47;;
76167;SDS011;64927;48.214;16.378;2023-04-15T03:01:45;0.45;;;0.30;;
76167;SDS011;64927;48.214;16.378;2023-04-15T03:04:13;0.40;;;0.40;;
76167;SDS011;64927;48.214;16.378;2023-04-15T03:06:41;0.38;;;0.30;;
76167;SDS011;64927;48.214;16.378;2023-04-15T03:09:07;0.32;;;0.30;;
76167;SDS011;64927;48.214;16.378;2023-04-15T03:11:33;0.47;;;0.40;;
76167;SDS011;64927;48.214;16.378;2023-04-15T03:14:03;0.80;;;0.40;;
76167;SDS011;64927;48.214;16.378;2023-04-15T03:16:28;0.60;;;0.60;;
76167;SDS011;64927;48.214;16.378;2023-04-15T03:18:54;0.70;;;0.40;;
76167;SDS011;64927;48.214;16.378;2023-04-15T03:21:22;0.73;;;0.60;;
76167;SDS011;64927;48.214;16.378;2023-04-15T03:23:51;1.10;;;0.50;;
76167;SDS011;64927;48.214;16.378;2023-04-15T03:26:23;0.60;;;0.50;;
76167;SDS011;64927;48.214;16.378;2023-04-15T03:28:55;1.73;;;0.60;;
76167;SDS011;64927;48.214;16.378;2023-04-15T03:31:21;0.70;;;0.60;;
76167;SDS011;64927;48.214;16.378;2023-04-15T03:33:47;2.35;;;0.57;;
76167;SDS011;64927;48.214;16.378;2023-04-15T03:36:15;0.95;;;0.52;;
76167;SDS011;64927;48.214;16.378;2023-04-15T03:38:41;0.65;;;0.65;;
76167;SDS011;64927;48.214;16.378;2023-04-15T03:41:07;1.48;;;0.70;;
76167;SDS011;64927;48.214;16.378;2023-04-15T03:43:33;2.60;;;0.80;;
76167;SDS011;64927;48.214;16.378;2023-04-15T03:45:59;0.95;;;0.80;;
76167;SDS011;64927;48.214;16.378;2023-04-15T03:48:25;1.17;;;1.08;;
76167;SDS011;64927;48.214;16.378;2023-04-15T03:50:51;1.48;;;1.10;;
76167;SDS011;64927;48.214;16.378;2023-04-15T03:53:16;1.50;;;1.30;;
76167;SDS011;64927;48.214;16.378;2023-04-15T03:55:44;2.08;;;1.20;;
76167;SDS011;64927;48.214;16.378;2023-04-15T03:58:10;1.65;;;1.30;;
76167;SDS011;64927;48.214;16.378;2023-04-15T04:00:37;1.50;;;1.40;;
76167;SDS011;64927;48.214;16.378;2023-04-15T04:03:05;1.48;;;1.25;;
76167;SDS011;64927;48.214;16.378;2023-04-15T04:05:31;4.13;;;1.33;;
76167;SDS011;64927;48.214;16.378;2023-04-15T04:07:56;3.15;;;1.30;;
76167;SDS011;64927;48.214;16.378;2023-04-15T04:10:22;2.17;;;1.40;;
76167;SDS011;64927;48.214;16.378;2023-04-15T04:12:47;1.70;;;1.40;;
76167;SDS011;64927;48.214;16.378;2023-04-15T04:15:13;2.00;;;1.55;;
76167;SDS011;64927;48.214;16.378;2023-04-15T04:17:39;2.50;;;1.38;;
76167;SDS011;64927;48.214;16.378;2023-04-15T04:20:04;1.95;;;1.48;;
76167;SDS011;64927;48.214;16.378;2023-04-15T04:22:36;3.45;;;2.35;;
76167;SDS011;64927;48.214;16.378;2023-04-15T04:25:03;3.30;;;1.98;;
76167;SDS011;64927;48.214;16.378;2023-04-15T04:27:29;3.38;;;2.10;;
76167;SDS011;64927;48.214;16.378;2023-04-15T04:29:55;2.67;;;1.75;;
76167;SDS011;64927;48.214;16.378;2023-04-15T04:32:21;2.15;;;1.95;;
76167;SDS011;64927;48.214;16.378;2023-04-15T04:34:46;3.90;;;1.80;;
76167;SDS011;64927;48.214;16.378;2023-04-15T04:37:12;1.83;;;1.60;;
76167;SDS011;64927;48.214;16.378;2023-04-15T04:39:38;2.60;;;2.00;;
76167;SDS011;64927;48.214;16.378;2023-04-15T04:42:04;2.92;;;2.63;;
76167;SDS011;64927;48.214;16.378;2023-04-15T04:44:30;2.65;;;2.15;;
76167;SDS011;64927;48.214;16.378;2023-04-15T04:46:56;2.85;;;2.45;;
76167;SDS011;64927;48.214;16.378;2023-04-15T04:49:21;3.25;;;2.67;;
76167;SDS011;64927;48.214;16.378;2023-04-15T04:51:47;2.88;;;2.30;;
76167;SDS011;64927;48.214;16.378;2023-04-15T04:54:13;2.45;;;2.17;;
76167;SDS011;64927;48.214;16.378;2023-04-15T04:56:41;7.00;;;4.15;;
76167;SDS011;64927;48.214;16.378;2023-04-15T04:59:06;3.63;;;2.55;;
76167;SDS011;64927;48.214;16.378;2023-04-15T05:01:32;3.38;;;2.72;;
76167;SDS011;64927;48.214;16.378;2023-04-15T05:03:58;3.45;;;2.60;;
76167;SDS011;64927;48.214;16.378;2023-04-15T05:06:24;4.97;;;2.75;;
76167;SDS011;64927;48.214;16.378;2023-04-15T05:08:50;3.85;;;2.83;;
76167;SDS011;64927;48.214;16.378;2023-04-15T05:11:15;5.72;;;2.97;;
76167;SDS011;64927;48.214;16.378;2023-04-15T05:13:41;4.78;;;2.78;;
76167;SDS011;64927;48.214;16.378;2023-04-15T05:16:07;3.95;;;3.10;;
76167;SDS011;64927;48.214;16.378;2023-04-15T05:18:33;3.60;;;2.72;;
76167;SDS011;64927;48.214;16.378;2023-04-15T05:20:59;3.05;;;2.67;;
76167;SDS011;64927;48.214;16.378;2023-04-15T05:23:29;4.38;;;2.47;;
76167;SDS011;64927;48.214;16.378;2023-04-15T05:25:55;3.28;;;2.47;;
76167;SDS011;64927;48.214;16.378;2023-04-15T05:28:20;4.10;;;2.78;;
76167;SDS011;64927;48.214;16.378;2023-04-15T05:30:46;3.50;;;2.45;;
76167;SDS011;64927;48.214;16.378;2023-04-15T05:33:12;3.33;;;2.38;;
76167;SDS011;64927;48.214;16.378;2023-04-15T05:35:37;2.38;;;1.90;;
76167;SDS011;64927;48.214;16.378;2023-04-15T05:38:03;2.75;;;1.90;;
76167;SDS011;64927;48.214;16.378;2023-04-15T05:40:29;2.60;;;2.10;;
76167;SDS011;64927;48.214;16.378;2023-04-15T05:42:55;4.55;;;2.03;;
76167;SDS011;64927;48.214;16.378;2023-04-15T05:45:21;2.40;;;2.03;;
76167;SDS011;64927;48.214;16.378;2023-04-15T05:47:46;4.22;;;2.15;;
76167;SDS011;64927;48.214;16.378;2023-04-15T05:50:14;2.65;;;1.65;;
76167;SDS011;64927;48.214;16.378;2023-04-15T05:52:40;1.77;;;1.67;;
76167;SDS011;64927;48.214;16.378;2023-04-15T05:55:06;1.77;;;1.42;;
76167;SDS011;64927;48.214;16.378;2023-04-15T05:57:32;2.00;;;1.63;;
76167;SDS011;64927;48.214;16.378;2023-04-15T05:59:57;1.75;;;1.50;;
76167;SDS011;64927;48.214;16.378;2023-04-15T06:02:23;3.05;;;1.55;;
76167;SDS011;64927;48.214;16.378;2023-04-15T06:04:49;2.20;;;1.73;;
76167;SDS011;64927;48.214;16.378;2023-04-15T06:07:14;2.00;;;1.60;;
76167;SDS011;64927;48.214;16.378;2023-04-15T06:09:40;2.25;;;1.65;;
76167;SDS011;64927;48.214;16.378;2023-04-15T06:12:05;2.40;;;1.80;;
76167;SDS011;64927;48.214;16.378;2023-04-15T06:14:36;2.60;;;1.63;;
76167;SDS011;64927;48.214;16.378;2023-04-15T06:17:02;4.68;;;1.60;;
76167;SDS011;64927;48.214;16.378;2023-04-15T06:19:28;1.83;;;1.60;;
76167;SDS011;64927;48.214;16.378;2023-04-15T06:21:53;2.00;;;1.35;;
76167;SDS011;64927;48.214;16.378;2023-04-15T06:24:19;1.95;;;1.10;;
76167;SDS011;64927;48.214;16.378;2023-04-15T06:26:45;2.00;;;1.25;;
76167;SDS011;64927;48.214;16.378;2023-04-15T06:29:13;4.00;;;2.40;;
76167;SDS011;64927;48.214;16.378;2023-04-15T06:31:40;3.15;;;1.95;;
76167;SDS011;64927;48.214;16.378;2023-04-15T06:34:06;3.78;;;2.10;;
76167;SDS011;64927;48.214;16.378;2023-04-15T06:36:37;1.48;;;1.20;;
76167;SDS011;64927;48.214;16.378;2023-04-15T06:39:02;3.42;;;1.80;;
76167;SDS011;64927;48.214;16.378;2023-04-15T06:41:28;3.10;;;1.40;;
76167;SDS011;64927;48.214;16.378;2023-04-15T06:43:54;2.42;;;2.15;;
76167;SDS011;64927;48.214;16.378;2023-04-15T06:46:20;2.30;;;1.83;;
76167;SDS011;64927;48.214;16.378;2023-04-15T06:48:46;1.67;;;1.27;;
76167;SDS011;64927;48.214;16.378;2023-04-15T06:51:11;1.65;;;1.25;;
76167;SDS011;64927;48.214;16.378;2023-04-15T06:53:37;1.27;;;1.17;;
76167;SDS011;64927;48.214;16.378;2023-04-15T06:56:07;2.97;;;2.05;;
76167;SDS011;64927;48.214;16.378;2023-04-15T06:58:33;2.17;;;1.80;;
76167;SDS011;64927;48.214;16.378;2023-04-15T07:00:59;1.88;;;1.48;;
76167;SDS011;64927;48.214;16.378;2023-04-15T07:03:27;2.15;;;1.67;;
76167;SDS011;64927;48.214;16.378;2023-04-15T07:05:53;2.65;;;1.50;;
76167;SDS011;64927;48.214;16.378;2023-04-15T07:08:19;2.30;;;1.50;;
76167;SDS011;64927;48.214;16.378;2023-04-15T07:10:45;2.03;;;1.48;;
76167;SDS011;64927;48.214;16.378;2023-04-15T07:13:11;2.78;;;1.65;;
76167;SDS011;64927;48.214;16.378;2023-04-15T07:15:37;2.47;;;1.40;;
76167;SDS011;64927;48.214;16.378;2023-04-15T07:18:03;1.15;;;1.02;;
76167;SDS011;64927;48.214;16.378;2023-04-15T07:20:28;1.25;;;1.00;;
76167;SDS011;64927;48.214;16.378;2023-04-15T07:22:54;1.00;;;0.80;;
76167;SDS011;64927;48.214;16.378;2023-04-15T07:25:20;3.42;;;1.17;;
76167;SDS011;64927;48.214;16.378;2023-04-15T07:27:46;3.22;;;1.15;;
76167;SDS011;64927;48.214;16.378;2023-04-15T07:30:14;1.45;;;1.02;;
76167;SDS011;64927;48.214;16.378;2023-04-15T07:32:40;1.38;;;1.15;;
76167;SDS011;64927;48.214;16.378;2023-04-15T07:35:06;1.63;;;1.25;;
76167;SDS011;64927;48.214;16.378;2023-04-15T07:37:33;1.50;;;1.10;;
76167;SDS011;64927;48.214;16.378;2023-04-15T07:40:00;2.85;;;1.83;;
76167;SDS011;64927;48.214;16.378;2023-04-15T07:42:25;1.88;;;1.30;;
76167;SDS011;64927;48.214;16.378;2023-04-15T07:44:51;2.22;;;1.30;;
76167;SDS011;64927;48.214;16.378;2023-04-15T07:47:17;2.45;;;1.52;;
76167;SDS011;64927;48.214;16.378;2023-04-15T07:49:44;2.53;;;1.90;;
76167;SDS011;64927;48.214;16.378;2023-04-15T07:52:13;1.90;;;1.45;;
76167;SDS011;64927;48.214;16.378;2023-04-15T07:54:38;2.22;;;1.60;;
76167;SDS011;64927;48.214;16.378;2023-04-15T07:57:04;1.92;;;1.48;;
76167;SDS011;64927;48.214;16.378;2023-04-15T07:59:30;3.17;;;1.40;;
76167;SDS011;64927;48.214;16.378;2023-04-15T08:01:57;1.45;;;1.10;;
76167;SDS011;64927;48.214;16.378;2023-04-15T08:04:23;1.30;;;1.02;;
76167;SDS011;64927;48.214;16.378;2023-04-15T08:06:51;1.13;;;0.98;;
76167;SDS011;64927;48.214;16.378;2023-04-15T08:09:17;1.02;;;0.77;;
76167;SDS011;64927;48.214;16.378;2023-04-15T08:11:43;0.95;;;0.60;;
76167;SDS011;64927;48.214;16.378;2023-04-15T08:14:09;1.77;;;0.80;;
76167;SDS011;64927;48.214;16.378;2023-04-15T08:16:34;2.28;;;1.38;;
76167;SDS011;64927;48.214;16.378;2023-04-15T08:19:02;1.20;;;0.80;;
76167;SDS011;64927;48.214;16.378;2023-04-15T08:21:28;3.13;;;1.50;;
76167;SDS011;64927;48.214;16.378;2023-04-15T08:23:54;1.25;;;0.90;;
76167;SDS011;64927;48.214;16.378;2023-04-15T08:26:20;1.40;;;1.13;;
76167;SDS011;64927;48.214;16.378;2023-04-15T08:28:47;1.98;;;1.13;;
76167;SDS011;64927;48.214;16.378;2023-04-15T08:31:16;1.52;;;1.15;;
76167;SDS011;64927;48.214;16.378;2023-04-15T08:33:42;1.90;;;1.40;;
76167;SDS011;64927;48.214;16.378;2023-04-15T08:36:08;1.65;;;1.30;;
76167;SDS011;64927;48.214;16.378;2023-04-15T08:38:34;2.03;;;1.20;;
76167;SDS011;64927;48.214;16.378;2023-04-15T08:41:02;3.13;;;1.65;;
76167;SDS011;64927;48.214;16.378;2023-04-15T08:43:34;1.20;;;0.85;;
76167;SDS011;64927;48.214;16.378;2023-04-15T08:46:04;1.27;;;0.90;;
76167;SDS011;64927;48.214;16.378;2023-04-15T08:48:31;1.75;;;1.17;;
76167;SDS011;64927;48.214;16.378;2023-04-15T08:50:59;1.55;;;1.08;;
76167;SDS011;64927;48.214;16.378;2023-04-15T08:53:25;1.67;;;1.08;;
76167;SDS011;64927;48.214;16.378;2023-04-15T08:55:53;1.60;;;0.90;;
76167;SDS011;64927;48.214;16.378;2023-04-15T08:58:21;1.33;;;1.02;;
76167;SDS011;64927;48.214;16.378;2023-04-15T09:00:48;2.10;;;0.93;;
76167;SDS011;64927;48.214;16.378;2023-04-15T09:03:14;1.77;;;1.40;;
76167;SDS011;64927;48.214;16.378;2023-04-15T09:05:41;1.85;;;1.40;;
76167;SDS011;64927;48.214;16.378;2023-04-15T09:08:07;2.97;;;1.48;;
76167;SDS011;64927;48.214;16.378;2023-04-15T09:10:33;1.50;;;1.08;;
76167;SDS011;64927;48.214;16.378;2023-04-15T09:12:59;2.00;;;1.30;;
76167;SDS011;64927;48.214;16.378;2023-04-15T09:15:28;1.45;;;1.20;;
76167;SDS011;64927;48.214;16.378;2023-04-15T09:17:56;1.40;;;1.00;;
76167;SDS011;64927;48.214;16.378;2023-04-15T09:20:21;1.50;;;1.13;;
76167;SDS011;64927;48.214;16.378;2023-04-15T09:22:52;1.48;;;0.77;;
76167;SDS011;64927;48.214;16.378;2023-04-15T09:25:24;0.50;;;0.50;;
76167;SDS011;64927;48.214;16.378;2023-04-15T09:27:55;0.80;;;0.40;;
76167;SDS011;64927;48.214;16.378;2023-04-15T09:30:23;1.20;;;0.50;;
76167;SDS011;64927;48.214;16.378;2023-04-15T09:32:53;0.65;;;0.50;;
76167;SDS011;64927;48.214;16.378;2023-04-15T09:35:20;0.60;;;0.50;;
76167;SDS011;64927;48.214;16.378;2023-04-15T09:37:46;1.10;;;0.73;;
76167;SDS011;64927;48.214;16.378;2023-04-15T09:40:13;0.68;;;0.57;;
76167;SDS011;64927;48.214;16.378;2023-04-15T09:42:54;1.45;;;0.70;;
76167;SDS011;64927;48.214;16.378;2023-04-15T09:45:20;1.23;;;0.70;;
76167;SDS011;64927;48.214;16.378;2023-04-15T09:47:46;3.03;;;1.00;;
76167;SDS011;64927;48.214;16.378;2023-04-15T09:50:12;0.98;;;0.73;;
76167;SDS011;64927;48.214;16.378;2023-04-15T09:52:42;0.70;;;0.60;;
76167;SDS011;64927;48.214;16.378;2023-04-15T09:55:08;1.05;;;0.73;;
76167;SDS011;64927;48.214;16.378;2023-04-15T09:57:38;1.20;;;0.80;;
76167;SDS011;64927;48.214;16.378;2023-04-15T10:00:06;1.05;;;0.80;;
76167;SDS011;64927;48.214;16.378;2023-04-15T10:02:35;2.55;;;1.00;;
76167;SDS011;64927;48.214;16.378;2023-04-15T10:05:01;1.35;;;0.63;;
76167;SDS011;64927;48.214;16.378;2023-04-15T10:07:28;0.47;;;0.40;;
76167;SDS011;64927;48.214;16.378;2023-04-15T10:09:54;0.70;;;0.50;;
76167;SDS011;64927;48.214;16.378;2023-04-15T10:12:20;0.40;;;0.40;;
76167;SDS011;64927;48.214;16.378;2023-04-15T10:14:47;0.98;;;0.68;;
76167;SDS011;64927;48.214;16.378;2023-04-15T10:17:20;1.10;;;0.90;;
76167;SDS011;64927;48.214;16.378;2023-04-15T10:19:47;1.90;;;0.90;;
76167;SDS011;64927;48.214;16.378;2023-04-15T10:22:13;1.05;;;0.45;;
76167;SDS011;64927;48.214;16.378;2023-04-15T10:24:39;0.75;;;0.40;;
76167;SDS011;64927;48.214;16.378;2023-04-15T10:27:07;1.77;;;0.80;;
76167;SDS011;64927;48.214;16.378;2023-04-15T10:29:34;0.85;;;0.50;;
76167;SDS011;64927;48.214;16.378;2023-04-15T10:31:59;0.57;;;0.45;;
76167;SDS011;64927;48.214;16.378;2023-04-15T10:34:26;0.93;;;0.43;;
76167;SDS011;64927;48.214;16.378;2023-04-15T10:36:54;0.30;;;0.30;;
76167;SDS011;64927;48.214;16.378;2023-04-15T10:39:40;0.95;;;0.43;;
76167;SDS011;64927;48.214;16.378;2023-04-15T10:42:13;0.93;;;0.60;;
76167;SDS011;64927;48.214;16.378;2023-04-15T10:44:58;0.82;;;0.60;;
76167;SDS011;64927;48.214;16.378;2023-04-15T10:47:25;2.72;;;1.05;;
76167;SDS011;64927;48.214;16.378;2023-04-15T10:50:00;1.55;;;0.75;;
76167;SDS011;64927;48.214;16.378;2023-04-15T10:52:27;1.33;;;0.70;;
76167;SDS011;64927;48.214;16.378;2023-04-15T10:55:03;0.88;;;0.50;;
76167;SDS011;64927;48.214;16.378;2023-04-15T10:57:46;0.50;;;0.40;;
76167;SDS011;64927;48.214;16.378;2023-04-15T11:00:21;1.60;;;0.60;;
76167;SDS011;64927;48.214;16.378;2023-04-15T11:05:21;0.90;;;0.82;;
76167;SDS011;64927;48.214;16.378;2023-04-15T11:08:06;1.25;;;0.60;;
76167;SDS011;64927;48.214;16.378;2023-04-15T11:13:04;1.05;;;0.45;;
76167;SDS011;64927;48.214;16.378;2023-04-15T11:15:34;0.75;;;0.57;;
76167;SDS011;64927;48.214;16.378;2023-04-15T11:20:49;1.50;;;0.65;;
76167;SDS011;64927;48.214;16.378;2023-04-15T11:23:18;1.10;;;0.60;;
76167;SDS011;64927;48.214;16.378;2023-04-15T11:25:53;1.17;;;0.55;;
76167;SDS011;64927;48.214;16.378;2023-04-15T11:28:19;0.63;;;0.60;;
76167;SDS011;64927;48.214;16.378;2023-04-15T11:30:45;1.20;;;1.00;;
76167;SDS011;64927;48.214;16.378;2023-04-15T11:33:10;1.35;;;0.90;;
76167;SDS011;64927;48.214;16.378;2023-04-15T11:35:39;0.95;;;0.80;;
76167;SDS011;64927;48.214;16.378;2023-04-15T11:38:09;3.70;;;1.08;;
76167;SDS011;64927;48.214;16.378;2023-04-15T11:40:36;2.03;;;1.10;;
76167;SDS011;64927;48.214;16.378;2023-04-15T11:43:12;0.73;;;0.65;;
76167;SDS011;64927;48.214;16.378;2023-04-15T11:48:17;1.05;;;0.70;;
76167;SDS011;64927;48.214;16.378;2023-04-15T11:50:44;0.73;;;0.68;;
76167;SDS011;64927;48.214;16.378;2023-04-15T11:53:10;0.90;;;0.73;;
76167;SDS011;64927;48.214;16.378;2023-04-15T11:55:44;1.40;;;0.63;;
76167;SDS011;64927;48.214;16.378;2023-04-15T12:00:39;0.95;;;0.57;;
76167;SDS011;64927;48.214;16.378;2023-04-15T12:03:11;0.95;;;0.63;;
76167;SDS011;64927;48.214;16.378;2023-04-15T12:06:01;0.95;;;0.50;;
76167;SDS011;64927;48.214;16.378;2023-04-15T12:14:26;1.25;;;0.50;;
76167;SDS011;64927;48.214;16.378;2023-04-15T12:17:02;0.90;;;0.70;;
76167;SDS011;64927;48.214;16.378;2023-04-15T12:19:38;0.47;;;0.45;;
76167;SDS011;64927;48.214;16.378;2023-04-15T12:22:12;0.43;;;0.40;;
76167;SDS011;64927;48.214;16.378;2023-04-15T12:24:40;0.50;;;0.40;;
76167;SDS011;64927;48.214;16.378;2023-04-15T12:27:12;1.63;;;0.70;;
76167;SDS011;64927;48.214;16.378;2023-04-15T12:29:40;1.25;;;0.50;;
76167;SDS011;64927;48.214;16.378;2023-04-15T12:32:10;0.50;;;0.45;;
76167;SDS011;64927;48.214;16.378;2023-04-15T12:34:43;1.08;;;0.50;;
76167;SDS011;64927;48.214;16.378;2023-04-15T12:37:14;0.27;;;0.27;;
76167;SDS011;64927;48.214;16.378;2023-04-15T12:39:41;1.00;;;0.57;;
76167;SDS011;64927;48.214;16.378;2023-04-15T12:42:08;1.05;;;0.70;;
76167;SDS011;64927;48.214;16.378;2023-04-15T12:44:35;1.25;;;0.50;;
76167;SDS011;64927;48.214;16.378;2023-04-15T12:47:01;1.00;;;0.70;;
76167;SDS011;64927;48.214;16.378;2023-04-15T12:49:27;0.50;;;0.40;;
76167;SDS011;64927;48.214;16.378;2023-04-15T12:51:56;0.50;;;0.50;;
76167;SDS011;64927;48.214;16.378;2023-04-15T12:54:26;1.63;;;0.70;;
76167;SDS011;64927;48.214;16.378;2023-04-15T12:56:52;0.63;;;0.43;;
76167;SDS011;64927;48.214;16.378;2023-04-15T12:59:19;1.10;;;0.55;;
76167;SDS011;64927;48.214;16.378;2023-04-15T13:01:47;6.05;;;2.72;;
76167;SDS011;64927;48.214;16.378;2023-04-15T13:04:14;1.88;;;1.02;;
76167;SDS011;64927;48.214;16.378;2023-04-15T13:06:40;0.80;;;0.60;;
76167;SDS011;64927;48.214;16.378;2023-04-15T13:09:06;1.73;;;0.70;;
76167;SDS011;64927;48.214;16.378;2023-04-15T13:11:34;1.70;;;0.90;;
76167;SDS011;64927;48.214;16.378;2023-04-15T13:14:01;0.68;;;0.50;;
76167;SDS011;64927;48.214;16.378;2023-04-15T13:16:31;0.65;;;0.65;;
76167;SDS011;64927;48.214;16.378;2023-04-15T13:18:58;0.70;;;0.40;;
76167;SDS011;64927;48.214;16.378;2023-04-15T13:21:26;0.68;;;0.30;;
76167;SDS011;64927;48.214;16.378;2023-04-15T13:23:52;0.40;;;0.40;;
76167;SDS011;64927;48.214;16.378;2023-04-15T13:26:18;1.02;;;0.45;;
76167;SDS011;64927;48.214;16.378;2023-04-15T13:28:44;0.55;;;0.50;;
76167;SDS011;64927;48.214;16.378;2023-04-15T13:31:10;1.75;;;0.50;;
76167;SDS011;64927;48.214;16.378;2023-04-15T13:33:35;0.28;;;0.22;;
76167;SDS011;64927;48.214;16.378;2023-04-15T13:36:01;1.77;;;0.50;;
76167;SDS011;64927;48.214;16.378;2023-04-15T13:38:27;0.90;;;0.40;;
76167;SDS011;64927;48.214;16.378;2023-04-15T13:40:55;0.45;;;0.30;;
76167;SDS011;64927;48.214;16.378;2023-04-15T13:43:21;0.80;;;0.38;;
76167;SDS011;64927;48.214;16.378;2023-04-15T13:45:47;0.20;;;0.20;;
76167;SDS011;64927;48.214;16.378;2023-04-15T13:48:13;0.30;;;0.30;;
76167;SDS011;64927;48.214;16.378;2023-04-15T13:50:38;0.60;;;0.40;;
76167;SDS011;64927;48.214;16.378;2023-04-15T13:53:09;0.52;;;0.28;;
76167;SDS011;64927;48.214;16.378;2023-04-15T13:55:35;0.75;;;0.40;;
76167;SDS011;64927;48.214;16.378;2023-04-15T13:58:05;0.65;;;0.45;;
76167;SDS011;64927;48.214;16.378;2023-04-15T14:00:31;1.60;;;0.40;;
76167;SDS011;64927;48.214;16.378;2023-04-15T14:02:57;0.22;;;0.22;;
76167;SDS011;64927;48.214;16.378;2023-04-15T14:05:25;2.30;;;1.15;;
76167;SDS011;64927;48.214;16.378;2023-04-15T14:07:50;0.90;;;0.40;;
76167;SDS011;64927;48.214;16.378;2023-04-15T14:10:16;1.33;;;0.50;;
76167;SDS011;64927;48.214;16.378;2023-04-15T14:12:42;0.30;;;0.30;;
76167;SDS011;64927;48.214;16.378;2023-04-15T14:15:08;0.45;;;0.38;;
76167;SDS011;64927;48.214;16.378;2023-04-15T14:17:34;0.68;;;0.40;;
76167;SDS011;64927;48.214;16.378;2023-04-15T14:20:06;1.00;;;0.60;;
76167;SDS011;64927;48.214;16.378;2023-04-15T14:22:33;0.63;;;0.38;;
76167;SDS011;64927;48.214;16.378;2023-04-15T14:24:58;0.30;;;0.30;;
76167;SDS011;64927;48.214;16.378;2023-04-15T14:27:25;0.20;;;0.20;;
76167;SDS011;64927;48.214;16.378;2023-04-15T14:29:53;0.93;;;0.55;;
76167;SDS011;64927;48.214;16.378;2023-04-15T14:32:21;1.10;;;0.80;;
76167;SDS011;64927;48.214;16.378;2023-04-15T14:34:48;0.40;;;0.40;;
76167;SDS011;64927;48.214;16.378;2023-04-15T14:37:14;0.60;;;0.50;;
76167;SDS011;64927;48.214;16.378;2023-04-15T14:39:40;0.82;;;0.50;;
76167;SDS011;64927;48.214;16.378;2023-04-15T14:42:05;1.58;;;0.93;;
76167;SDS011;64927;48.214;16.378;2023-04-15T14:44:34;0.50;;;0.50;;
76167;SDS011;64927;48.214;16.378;2023-04-15T14:47:00;0.98;;;0.45;;
76167;SDS011;64927;48.214;16.378;2023-04-15T14:49:25;1.00;;;0.47;;
76167;SDS011;64927;48.214;16.378;2023-04-15T14:51:51;0.65;;;0.52;;